Time;durP1;ratioP1;P1;durP2;ratioP2;P2;SDS_P1;SDS_P2;PMS_P1;PMS_P2;Temp;Humidity;BMP_temperature;BMP_pressure;BME280_temperature;BME280_humidity;BME280_pressure;Samples;Min_cycle;Max_cycle;Signal;HPM_P1;HPM_P2
2022/11/24 00:01:20;;;;;;;0.70;0.70;;;;;;;;;;6179800;23;20152;-76
2022/11/24 00:03:52;;;;;;;0.70;0.70;;;;;;;;;;6179226;23;20180;-75
2022/11/24 00:06:18;;;;;;;0.60;0.60;;;;;;;;;;6179799;23;20147;-75
2022/11/24 00:08:45;;;;;;;0.63;0.63;;;;;;;;;;6179829;23;20481;-75
2022/11/24 00:11:18;;;;;;;0.70;0.70;;;;;;;;;;6179895;23;20156;-75
2022/11/24 00:13:44;;;;;;;0.70;0.70;;;;;;;;;;6178791;23;20172;-75
2022/11/24 00:16:12;;;;;;;0.80;0.80;;;;;;;;;;6179804;23;20156;-75
2022/11/24 00:18:38;;;;;;;0.70;0.70;;;;;;;;;;6179692;23;20184;-75
2022/11/24 00:21:04;;;;;;;0.60;0.60;;;;;;;;;;6179786;23;20239;-75
2022/11/24 00:23:30;;;;;;;0.60;0.60;;;;;;;;;;6179075;23;20176;-75
2022/11/24 00:26:02;;;;;;;0.60;0.60;;;;;;;;;;6179653;23;20637;-74
2022/11/24 00:28:28;;;;;;;0.60;0.60;;;;;;;;;;6180971;23;20137;-74
2022/11/24 00:30:54;;;;;;;0.77;0.77;;;;;;;;;;6184453;23;20452;-74
2022/11/24 00:33:20;;;;;;;0.70;0.70;;;;;;;;;;6183937;23;20532;-74
2022/11/24 00:35:53;;;;;;;0.60;0.60;;;;;;;;;;6186584;23;20158;-75
2022/11/24 00:38:19;;;;;;;0.70;0.70;;;;;;;;;;6186687;23;20532;-75
2022/11/24 00:40:44;;;;;;;0.70;0.70;;;;;;;;;;6179924;23;20155;-75
2022/11/24 00:43:11;;;;;;;0.70;0.70;;;;;;;;;;6177660;23;20186;-75
2022/11/24 00:45:37;;;;;;;0.70;0.70;;;;;;;;;;6180890;23;20148;-75
2022/11/24 00:48:03;;;;;;;0.70;0.70;;;;;;;;;;6180235;23;20460;-75
2022/11/24 00:50:29;;;;;;;0.70;0.70;;;;;;;;;;6180137;23;20586;-76
2022/11/24 00:52:55;;;;;;;0.70;0.70;;;;;;;;;;6179085;23;20172;-77
2022/11/24 00:55:21;;;;;;;0.50;0.50;;;;;;;;;;6179293;23;20158;-76
2022/11/24 00:57:46;;;;;;;0.60;0.60;;;;;;;;;;6180042;23;20227;-75
2022/11/24 01:00:13;;;;;;;0.57;0.57;;;;;;;;;;6179673;23;20188;-76
2022/11/24 01:02:39;;;;;;;0.70;0.70;;;;;;;;;;6179032;23;20185;-76
2022/11/24 01:05:05;;;;;;;0.60;0.60;;;;;;;;;;6179471;23;20621;-76
2022/11/24 01:07:31;;;;;;;0.70;0.70;;;;;;;;;;6179971;23;20156;-75
2022/11/24 01:09:57;;;;;;;0.70;0.70;;;;;;;;;;6182666;23;20606;-75
2022/11/24 01:12:23;;;;;;;0.60;0.60;;;;;;;;;;6180898;23;20164;-75
2022/11/24 01:14:49;;;;;;;0.60;0.60;;;;;;;;;;6181783;23;20183;-75
2022/11/24 01:17:15;;;;;;;0.70;0.70;;;;;;;;;;6181418;23;20148;-76
2022/11/24 01:19:41;;;;;;;0.60;0.60;;;;;;;;;;6181626;23;20522;-76
2022/11/24 01:22:07;;;;;;;0.60;0.60;;;;;;;;;;6179165;23;20739;-76
2022/11/24 01:24:32;;;;;;;0.60;0.60;;;;;;;;;;6178584;23;20160;-76
2022/11/24 01:26:58;;;;;;;0.70;0.70;;;;;;;;;;6179669;23;20202;-75
2022/11/24 01:29:24;;;;;;;0.70;0.70;;;;;;;;;;6179478;23;20159;-76
2022/11/24 01:31:50;;;;;;;0.60;0.60;;;;;;;;;;6179338;23;20152;-76
2022/11/24 01:34:16;;;;;;;0.60;0.60;;;;;;;;;;6178932;23;20248;-76
2022/11/24 01:36:42;;;;;;;0.70;0.70;;;;;;;;;;6178069;23;20155;-76
2022/11/24 01:39:08;;;;;;;0.70;0.70;;;;;;;;;;6178987;23;20278;-76
2022/11/24 01:41:34;;;;;;;0.77;0.77;;;;;;;;;;6179039;23;20155;-76
2022/11/24 01:44:00;;;;;;;0.70;0.70;;;;;;;;;;6178362;23;20626;-76
2022/11/24 01:46:30;;;;;;;0.70;0.70;;;;;;;;;;6179364;23;20235;-76
2022/11/24 01:49:08;;;;;;;0.70;0.70;;;;;;;;;;6179264;23;20176;-76
2022/11/24 01:51:36;;;;;;;0.60;0.60;;;;;;;;;;6178894;23;20156;-76
2022/11/24 01:54:05;;;;;;;0.50;0.50;;;;;;;;;;6178452;23;20228;-76
2022/11/24 01:56:33;;;;;;;0.70;0.70;;;;;;;;;;6179198;23;20156;-76
2022/11/24 01:59:00;;;;;;;0.70;0.70;;;;;;;;;;6178848;23;20635;-76
2022/11/24 02:01:27;;;;;;;0.67;0.67;;;;;;;;;;6178998;23;20614;-76
2022/11/24 02:03:54;;;;;;;0.70;0.70;;;;;;;;;;6178149;23;20175;-76
2022/11/24 02:06:22;;;;;;;0.70;0.70;;;;;;;;;;6179362;23;20214;-76
2022/11/24 02:09:03;;;;;;;0.60;0.60;;;;;;;;;;6179103;23;20234;-76
2022/11/24 02:11:32;;;;;;;0.70;0.70;;;;;;;;;;6179131;23;20160;-76
2022/11/24 02:13:59;;;;;;;0.70;0.70;;;;;;;;;;6178438;23;20179;-76
2022/11/24 02:16:25;;;;;;;0.70;0.70;;;;;;;;;;6178961;23;20175;-76
2022/11/24 02:18:51;;;;;;;0.70;0.70;;;;;;;;;;6178762;23;20671;-76
2022/11/24 02:21:17;;;;;;;0.80;0.80;;;;;;;;;;6179089;23;20194;-77
2022/11/24 02:23:46;;;;;;;0.70;0.70;;;;;;;;;;6178063;23;20186;-77
2022/11/24 02:26:15;;;;;;;0.63;0.63;;;;;;;;;;6178949;23;20152;-76
2022/11/24 02:28:41;;;;;;;0.70;0.70;;;;;;;;;;6178886;23;20156;-77
2022/11/24 02:31:07;;;;;;;0.60;0.60;;;;;;;;;;6178716;23;20552;-77
2022/11/24 02:33:33;;;;;;;0.70;0.70;;;;;;;;;;6178262;23;20168;-77
2022/11/24 02:35:59;;;;;;;0.67;0.67;;;;;;;;;;6178887;23;20167;-77
2022/11/24 02:38:32;;;;;;;0.60;0.60;;;;;;;;;;6178520;23;20191;-77
2022/11/24 02:41:00;;;;;;;0.60;0.60;;;;;;;;;;6178830;23;20152;-77
2022/11/24 02:43:26;;;;;;;0.60;0.60;;;;;;;;;;6178092;23;20172;-77
2022/11/24 02:45:52;;;;;;;0.70;0.70;;;;;;;;;;6178707;23;20182;-76
2022/11/24 02:48:18;;;;;;;0.70;0.70;;;;;;;;;;6179389;23;20152;-76
2022/11/24 02:50:44;;;;;;;0.77;0.77;;;;;;;;;;6180156;23;20148;-77
2022/11/24 02:53:10;;;;;;;0.80;0.80;;;;;;;;;;6179545;23;20176;-76
2022/11/24 02:55:36;;;;;;;0.60;0.60;;;;;;;;;;6180240;23;20479;-76
2022/11/24 02:58:02;;;;;;;0.60;0.60;;;;;;;;;;6180024;23;20155;-76
2022/11/24 03:00:28;;;;;;;0.70;0.70;;;;;;;;;;6180302;23;20646;-76
2022/11/24 03:02:54;;;;;;;0.63;0.63;;;;;;;;;;6177444;23;20168;-76
2022/11/24 03:05:20;;;;;;;0.60;0.60;;;;;;;;;;6180065;23;20164;-76
2022/11/24 03:07:46;;;;;;;0.60;0.60;;;;;;;;;;6180168;23;20182;-76
2022/11/24 03:10:12;;;;;;;0.70;0.70;;;;;;;;;;6179710;23;20163;-76
2022/11/24 03:12:38;;;;;;;0.70;0.70;;;;;;;;;;6179523;23;20179;-76
2022/11/24 03:15:04;;;;;;;0.60;0.60;;;;;;;;;;6180210;23;20692;-75
2022/11/24 03:17:30;;;;;;;0.70;0.70;;;;;;;;;;6180473;23;20162;-76
2022/11/24 03:19:58;;;;;;;0.80;0.80;;;;;;;;;;6179941;23;20572;-75
2022/11/24 03:22:24;;;;;;;0.70;0.70;;;;;;;;;;6178968;23;20176;-77
2022/11/24 03:24:50;;;;;;;0.70;0.70;;;;;;;;;;6180087;23;20216;-77
2022/11/24 03:27:16;;;;;;;0.70;0.70;;;;;;;;;;6180017;23;20235;-77
2022/11/24 03:29:42;;;;;;;0.70;0.70;;;;;;;;;;6180159;23;20156;-77
2022/11/24 03:32:08;;;;;;;0.70;0.70;;;;;;;;;;6177452;23;20152;-77
2022/11/24 03:34:34;;;;;;;0.70;0.70;;;;;;;;;;6180232;23;20231;-77
2022/11/24 03:37:00;;;;;;;0.70;0.70;;;;;;;;;;6180747;23;20160;-77
2022/11/24 03:39:26;;;;;;;0.77;0.77;;;;;;;;;;6180276;23;20564;-76
2022/11/24 03:41:52;;;;;;;0.70;0.70;;;;;;;;;;6180120;23;20152;-76
2022/11/24 03:44:18;;;;;;;0.80;0.80;;;;;;;;;;6179170;23;20168;-76
2022/11/24 03:46:44;;;;;;;0.70;0.70;;;;;;;;;;6179739;23;20172;-77
2022/11/24 03:49:10;;;;;;;0.80;0.80;;;;;;;;;;6179855;23;20243;-77
2022/11/24 03:51:36;;;;;;;0.73;0.73;;;;;;;;;;6179779;23;20160;-75
2022/11/24 03:54:02;;;;;;;0.67;0.67;;;;;;;;;;6178715;23;20172;-75
2022/11/24 03:56:27;;;;;;;0.63;0.63;;;;;;;;;;6179725;23;20179;-75
2022/11/24 03:58:53;;;;;;;0.60;0.60;;;;;;;;;;6179186;23;20187;-75
2022/11/24 04:01:19;;;;;;;0.73;0.73;;;;;;;;;;6179429;23;20152;-76
2022/11/24 04:03:45;;;;;;;0.80;0.80;;;;;;;;;;6179134;23;20203;-76
2022/11/24 04:06:11;;;;;;;0.70;0.70;;;;;;;;;;6179242;23;20171;-76
2022/11/24 04:08:37;;;;;;;0.70;0.70;;;;;;;;;;6181704;23;20156;-76
2022/11/24 04:11:03;;;;;;;0.70;0.70;;;;;;;;;;6181273;23;20179;-75
2022/11/24 04:13:29;;;;;;;0.80;0.80;;;;;;;;;;6179186;23;20202;-76
2022/11/24 04:15:55;;;;;;;0.70;0.70;;;;;;;;;;6179837;23;20475;-76
2022/11/24 04:18:21;;;;;;;0.60;0.60;;;;;;;;;;6179748;23;20516;-77
2022/11/24 04:20:50;;;;;;;0.70;0.70;;;;;;;;;;6179688;23;20163;-76
2022/11/24 04:23:16;;;;;;;0.70;0.70;;;;;;;;;;6178835;23;20185;-77
2022/11/24 04:25:42;;;;;;;0.80;0.80;;;;;;;;;;6179763;23;20152;-77
2022/11/24 04:28:09;;;;;;;0.80;0.80;;;;;;;;;;6179973;23;20473;-77
2022/11/24 04:30:37;;;;;;;0.80;0.80;;;;;;;;;;6179893;23;20186;-76
2022/11/24 04:33:03;;;;;;;0.70;0.70;;;;;;;;;;6179159;23;20164;-75
2022/11/24 04:35:29;;;;;;;0.60;0.60;;;;;;;;;;6179768;23;20245;-76
2022/11/24 04:37:55;;;;;;;0.87;0.87;;;;;;;;;;6179216;23;20606;-76
2022/11/24 04:40:21;;;;;;;0.80;0.80;;;;;;;;;;6179659;23;20536;-75
2022/11/24 04:42:54;;;;;;;0.80;0.80;;;;;;;;;;6179067;23;20182;-76
2022/11/24 04:45:20;;;;;;;0.60;0.60;;;;;;;;;;6179560;23;20167;-76
2022/11/24 04:47:46;;;;;;;0.70;0.70;;;;;;;;;;6179802;23;20175;-75
2022/11/24 04:50:11;;;;;;;0.63;0.63;;;;;;;;;;6179207;23;20160;-76
2022/11/24 04:52:37;;;;;;;0.70;0.70;;;;;;;;;;6178096;23;20186;-75
2022/11/24 04:55:03;;;;;;;0.90;0.90;;;;;;;;;;6178973;23;20186;-75
2022/11/24 04:57:29;;;;;;;0.80;0.80;;;;;;;;;;6179420;23;20213;-75
2022/11/24 04:59:55;;;;;;;0.80;0.80;;;;;;;;;;6179608;23;20233;-75
2022/11/24 05:02:22;;;;;;;0.63;0.63;;;;;;;;;;6178559;23;20668;-75
2022/11/24 05:04:48;;;;;;;0.60;0.60;;;;;;;;;;6179043;23;20608;-75
2022/11/24 05:07:15;;;;;;;0.70;0.70;;;;;;;;;;6179816;23;20487;-75
2022/11/24 05:12:30;;;;;;;0.70;0.70;;;;;;;;;;6178798;23;20183;-75
2022/11/24 05:14:57;;;;;;;0.60;0.60;;;;;;;;;;6179895;23;20140;-75
2022/11/24 05:17:23;;;;;;;0.70;0.70;;;;;;;;;;6179637;23;20152;-75
2022/11/24 05:19:49;;;;;;;0.70;0.70;;;;;;;;;;6179092;23;20275;-75
2022/11/24 05:22:14;;;;;;;0.70;0.70;;;;;;;;;;6178821;23;20156;-75
2022/11/24 05:24:40;;;;;;;0.67;0.67;;;;;;;;;;6179692;23;20171;-75
2022/11/24 05:27:06;;;;;;;0.90;0.90;;;;;;;;;;6179560;23;20156;-75
2022/11/24 05:29:32;;;;;;;0.60;0.60;;;;;;;;;;6179530;23;20300;-75
2022/11/24 05:31:58;;;;;;;0.80;0.80;;;;;;;;;;6178987;23;20404;-75
2022/11/24 05:34:25;;;;;;;0.73;0.73;;;;;;;;;;6179179;23;20156;-75
2022/11/24 05:36:55;;;;;;;0.83;0.83;;;;;;;;;;6179596;23;20156;-75
2022/11/24 05:39:21;;;;;;;0.60;0.60;;;;;;;;;;6179428;23;20187;-75
2022/11/24 05:41:47;;;;;;;0.67;0.67;;;;;;;;;;6179054;23;20482;-77
2022/11/24 05:44:13;;;;;;;0.83;0.83;;;;;;;;;;6178892;23;20482;-78
2022/11/24 05:46:39;;;;;;;0.60;0.60;;;;;;;;;;6179359;23;20689;-77
2022/11/24 05:49:04;;;;;;;0.70;0.70;;;;;;;;;;6179175;23;20156;-76
2022/11/24 05:51:32;;;;;;;0.80;0.80;;;;;;;;;;6179763;23;20163;-76
2022/11/24 05:53:58;;;;;;;0.70;0.70;;;;;;;;;;6178415;23;20164;-78
2022/11/24 05:56:24;;;;;;;0.60;0.60;;;;;;;;;;6179439;23;20159;-76
2022/11/24 05:58:50;;;;;;;0.80;0.80;;;;;;;;;;6179225;23;20652;-77
2022/11/24 06:01:15;;;;;;;0.70;0.70;;;;;;;;;;6179122;23;20208;-76
2022/11/24 06:03:41;;;;;;;0.70;0.70;;;;;;;;;;6180099;23;20187;-77
2022/11/24 06:06:07;;;;;;;0.70;0.70;;;;;;;;;;6179485;23;20152;-77
2022/11/24 06:08:33;;;;;;;0.70;0.70;;;;;;;;;;6179642;23;20366;-81
2022/11/24 06:11:16;;;;;;;0.70;0.70;;;;;;;;;;6179824;23;20167;-76
2022/11/24 06:13:43;;;;;;;0.60;0.60;;;;;;;;;;6178654;23;20209;-75
2022/11/24 06:16:09;;;;;;;0.80;0.80;;;;;;;;;;6179150;23;20187;-75
2022/11/24 06:18:35;;;;;;;0.70;0.70;;;;;;;;;;6179005;23;20171;-75
2022/11/24 06:21:02;;;;;;;0.70;0.70;;;;;;;;;;6179298;23;20156;-75
2022/11/24 06:23:28;;;;;;;0.50;0.50;;;;;;;;;;6178452;23;20390;-76
2022/11/24 06:25:54;;;;;;;0.60;0.60;;;;;;;;;;6179713;23;20212;-77
2022/11/24 06:28:19;;;;;;;0.60;0.60;;;;;;;;;;6180361;23;20152;-77
2022/11/24 06:30:45;;;;;;;0.60;0.60;;;;;;;;;;6177972;23;20152;-76
2022/11/24 06:33:11;;;;;;;0.80;0.80;;;;;;;;;;6172477;23;20240;-76
2022/11/24 06:35:37;;;;;;;0.70;0.70;;;;;;;;;;6178904;23;20201;-77
2022/11/24 06:38:04;;;;;;;0.70;0.70;;;;;;;;;;6179805;23;20164;-77
2022/11/24 06:40:30;;;;;;;0.70;0.70;;;;;;;;;;6180363;23;20559;-77
2022/11/24 06:42:56;;;;;;;0.80;0.80;;;;;;;;;;6178565;23;20555;-77
2022/11/24 06:45:22;;;;;;;0.60;0.60;;;;;;;;;;6180897;23;20148;-76
2022/11/24 06:47:48;;;;;;;0.73;0.73;;;;;;;;;;6190565;23;20162;-77
2022/11/24 06:50:14;;;;;;;0.70;0.70;;;;;;;;;;6195283;23;20551;-76
2022/11/24 06:52:40;;;;;;;0.70;0.70;;;;;;;;;;6192887;23;20180;-76
2022/11/24 06:55:06;;;;;;;0.70;0.70;;;;;;;;;;6192342;23;20586;-76
2022/11/24 06:57:32;;;;;;;0.60;0.60;;;;;;;;;;6181645;23;20263;-77
2022/11/24 06:59:58;;;;;;;0.60;0.60;;;;;;;;;;6181217;23;20228;-77
2022/11/24 07:02:24;;;;;;;0.60;0.60;;;;;;;;;;6181647;23;20195;-76
2022/11/24 07:04:50;;;;;;;0.60;0.60;;;;;;;;;;6181241;23;20547;-76
2022/11/24 07:07:16;;;;;;;0.60;0.60;;;;;;;;;;6180291;23;20176;-77
2022/11/24 07:09:42;;;;;;;0.70;0.70;;;;;;;;;;6180178;23;20158;-76
2022/11/24 07:12:08;;;;;;;0.60;0.60;;;;;;;;;;6180090;23;20158;-76
2022/11/24 07:14:34;;;;;;;0.70;0.70;;;;;;;;;;6180262;23;20261;-76
2022/11/24 07:17:01;;;;;;;0.60;0.60;;;;;;;;;;6179874;23;20723;-77
2022/11/24 07:19:27;;;;;;;0.60;0.60;;;;;;;;;;6181338;23;20180;-77
2022/11/24 07:21:54;;;;;;;0.70;0.70;;;;;;;;;;6180212;23;20238;-76
2022/11/24 07:24:20;;;;;;;0.50;0.50;;;;;;;;;;6179574;23;20417;-76
2022/11/24 07:26:46;;;;;;;0.70;0.70;;;;;;;;;;6180553;23;20152;-77
2022/11/24 07:29:12;;;;;;;0.70;0.70;;;;;;;;;;6181037;23;20166;-76
2022/11/24 07:31:37;;;;;;;0.70;0.70;;;;;;;;;;6180908;23;20160;-77
2022/11/24 07:34:03;;;;;;;0.63;0.63;;;;;;;;;;6179019;23;20172;-76
2022/11/24 07:36:29;;;;;;;0.73;0.73;;;;;;;;;;6177825;23;20239;-77
2022/11/24 07:38:55;;;;;;;0.70;0.70;;;;;;;;;;6179196;23;20638;-76
2022/11/24 07:41:21;;;;;;;0.70;0.70;;;;;;;;;;6179881;23;20156;-77
2022/11/24 07:43:48;;;;;;;0.70;0.70;;;;;;;;;;6179523;23;20626;-77
2022/11/24 07:46:15;;;;;;;0.70;0.70;;;;;;;;;;6180226;23;20159;-76
2022/11/24 07:48:41;;;;;;;0.70;0.70;;;;;;;;;;6179806;23;20542;-76
2022/11/24 07:51:08;;;;;;;0.60;0.60;;;;;;;;;;6183412;23;20152;-77
2022/11/24 07:53:34;;;;;;;0.63;0.63;;;;;;;;;;6186893;23;20251;-77
2022/11/24 07:56:01;;;;;;;0.70;0.70;;;;;;;;;;6184747;23;20556;-76
2022/11/24 07:58:28;;;;;;;0.60;0.60;;;;;;;;;;6178618;23;20550;-77
2022/11/24 08:00:54;;;;;;;0.70;0.70;;;;;;;;;;6179183;23;20729;-77
2022/11/24 08:03:20;;;;;;;0.60;0.60;;;;;;;;;;6178689;23;20190;-77
2022/11/24 08:05:53;;;;;;;0.60;0.60;;;;;;;;;;6179397;23;20539;-76
2022/11/24 08:08:19;;;;;;;0.70;0.70;;;;;;;;;;6179339;23;20163;-77
2022/11/24 08:10:45;;;;;;;0.50;0.50;;;;;;;;;;6179668;23;20144;-77
2022/11/24 08:13:11;;;;;;;0.60;0.60;;;;;;;;;;6178372;23;20236;-76
2022/11/24 08:15:37;;;;;;;0.73;0.73;;;;;;;;;;6179769;23;20148;-77
2022/11/24 08:18:04;;;;;;;0.60;0.60;;;;;;;;;;6179704;23;20156;-77
2022/11/24 08:20:29;;;;;;;0.60;0.60;;;;;;;;;;6180031;23;20429;-77
2022/11/24 08:22:59;;;;;;;0.60;0.60;;;;;;;;;;6185523;23;20179;-76
2022/11/24 08:25:30;;;;;;;0.70;0.70;;;;;;;;;;6189725;23;20154;-77
2022/11/24 08:27:56;;;;;;;0.60;0.60;;;;;;;;;;6188612;23;20147;-77
2022/11/24 08:30:22;;;;;;;0.60;0.60;;;;;;;;;;6180242;23;20152;-77
2022/11/24 08:32:48;;;;;;;0.63;0.63;;;;;;;;;;6178994;23;20207;-77
2022/11/24 08:35:14;;;;;;;0.70;0.70;;;;;;;;;;6179028;23;20171;-77
2022/11/24 08:37:40;;;;;;;0.60;0.60;;;;;;;;;;6179603;23;20262;-77
2022/11/24 08:40:07;;;;;;;0.70;0.70;;;;;;;;;;6179864;23;20187;-77
2022/11/24 08:42:33;;;;;;;0.70;0.70;;;;;;;;;;6179707;23;20176;-76
2022/11/24 08:44:58;;;;;;;0.70;0.70;;;;;;;;;;6179922;23;20249;-76
2022/11/24 08:47:24;;;;;;;0.67;0.67;;;;;;;;;;6179461;23;20205;-76
2022/11/24 08:49:50;;;;;;;0.60;0.60;;;;;;;;;;6181560;23;20429;-75
2022/11/24 08:52:16;;;;;;;0.70;0.70;;;;;;;;;;6179557;23;20474;-77
2022/11/24 08:54:43;;;;;;;0.60;0.60;;;;;;;;;;6179975;23;20502;-74
2022/11/24 08:57:10;;;;;;;0.70;0.70;;;;;;;;;;6177624;23;20159;-75
2022/11/24 08:59:36;;;;;;;0.70;0.70;;;;;;;;;;6179796;23;20260;-74
2022/11/24 09:02:02;;;;;;;0.60;0.60;;;;;;;;;;6179076;23;20158;-74
2022/11/24 09:04:27;;;;;;;0.60;0.60;;;;;;;;;;6179443;23;20187;-75
2022/11/24 09:06:53;;;;;;;0.70;0.70;;;;;;;;;;6179600;23;20152;-75
2022/11/24 09:09:19;;;;;;;0.60;0.60;;;;;;;;;;6179701;23;20151;-76
2022/11/24 09:11:45;;;;;;;0.60;0.60;;;;;;;;;;6179655;23;20196;-75
2022/11/24 09:14:11;;;;;;;0.60;0.60;;;;;;;;;;6178971;23;20183;-76
2022/11/24 09:16:37;;;;;;;0.60;0.60;;;;;;;;;;6179494;23;20235;-75
2022/11/24 09:19:04;;;;;;;0.60;0.60;;;;;;;;;;6193669;23;20175;-75
2022/11/24 09:21:32;;;;;;;0.60;0.60;;;;;;;;;;6204076;23;20194;-76
2022/11/24 09:23:58;;;;;;;0.60;0.60;;;;;;;;;;6202571;23;20228;-76
2022/11/24 09:26:26;;;;;;;0.70;0.70;;;;;;;;;;6182709;23;20242;-77
2022/11/24 09:28:53;;;;;;;0.60;0.60;;;;;;;;;;6185105;23;20460;-78
2022/11/24 09:31:19;;;;;;;0.70;0.70;;;;;;;;;;6181416;23;20163;-77
2022/11/24 09:33:45;;;;;;;0.70;0.70;;;;;;;;;;6181216;23;20176;-76
2022/11/24 09:36:12;;;;;;;0.70;0.70;;;;;;;;;;6180686;23;20147;-77
2022/11/24 09:38:38;;;;;;;0.67;0.67;;;;;;;;;;6179810;23;20239;-77
2022/11/24 09:41:20;;;;;;;0.60;0.60;;;;;;;;;;6180252;23;20156;-76
2022/11/24 09:43:46;;;;;;;0.60;0.60;;;;;;;;;;6179037;23;20255;-77
2022/11/24 09:46:19;;;;;;;0.80;0.80;;;;;;;;;;6179422;23;20237;-76
2022/11/24 09:48:47;;;;;;;0.60;0.60;;;;;;;;;;6179858;23;20476;-76
2022/11/24 09:51:13;;;;;;;0.60;0.60;;;;;;;;;;6179405;23;20156;-76
2022/11/24 09:53:54;;;;;;;0.70;0.70;;;;;;;;;;6178805;23;20171;-75
2022/11/24 09:56:21;;;;;;;0.70;0.70;;;;;;;;;;6175906;23;20152;-77
2022/11/24 09:58:49;;;;;;;0.60;0.60;;;;;;;;;;6179547;22;20209;-78
2022/11/24 10:01:17;;;;;;;0.60;0.60;;;;;;;;;;6177727;23;20190;-77
2022/11/24 10:03:48;;;;;;;0.60;0.60;;;;;;;;;;6177419;23;20171;-77
2022/11/24 10:06:18;;;;;;;0.80;0.80;;;;;;;;;;6179282;23;20164;-77
2022/11/24 10:08:59;;;;;;;0.60;0.60;;;;;;;;;;6178553;23;20148;-77
2022/11/24 10:11:47;;;;;;;0.60;0.60;;;;;;;;;;6177139;23;20311;-77
2022/11/24 10:14:52;;;;;;;0.60;0.60;;;;;;;;;;6176015;23;20653;-77
2022/11/24 10:17:32;;;;;;;0.60;0.60;;;;;;;;;;6216570;23;20159;-79
2022/11/24 10:20:08;;;;;;;0.70;0.70;;;;;;;;;;6218955;23;20201;-77
2022/11/24 10:22:34;;;;;;;0.57;0.57;;;;;;;;;;6196328;23;20187;-77
2022/11/24 10:25:00;;;;;;;0.50;0.50;;;;;;;;;;6181968;23;20476;-77
2022/11/24 10:27:30;;;;;;;0.70;0.70;;;;;;;;;;6182585;23;20158;-77
2022/11/24 10:29:56;;;;;;;0.70;0.70;;;;;;;;;;6184181;23;20156;-77
2022/11/24 10:32:40;;;;;;;0.60;0.60;;;;;;;;;;6184929;23;20176;-78
2022/11/24 10:35:14;;;;;;;0.70;0.70;;;;;;;;;;6189651;23;20606;-77
2022/11/24 10:37:45;;;;;;;0.80;0.80;;;;;;;;;;6181107;23;20175;-77
2022/11/24 10:40:34;;;;;;;0.70;0.70;;;;;;;;;;6180490;23;20188;-76
2022/11/24 10:43:00;;;;;;;0.63;0.63;;;;;;;;;;6182646;23;20179;-77
2022/11/24 10:45:27;;;;;;;0.63;0.63;;;;;;;;;;6179039;23;20152;-77
2022/11/24 10:47:54;;;;;;;0.60;0.60;;;;;;;;;;6175348;23;21099;-76
2022/11/24 10:50:22;;;;;;;0.60;0.60;;;;;;;;;;6184538;23;20332;-76
2022/11/24 10:52:56;;;;;;;0.40;0.40;;;;;;;;;;6177383;23;20175;-75
2022/11/24 10:55:22;;;;;;;0.50;0.50;;;;;;;;;;6179684;23;20227;-75
2022/11/24 10:57:48;;;;;;;0.60;0.60;;;;;;;;;;6178597;23;20209;-74
2022/11/24 11:00:20;;;;;;;0.50;0.50;;;;;;;;;;6178424;23;20291;-76
2022/11/24 11:02:47;;;;;;;0.53;0.53;;;;;;;;;;6175144;23;20551;-77
2022/11/24 11:05:23;;;;;;;0.60;0.60;;;;;;;;;;6175674;23;20234;-77
2022/11/24 11:07:49;;;;;;;0.60;0.60;;;;;;;;;;6179152;23;20158;-77
2022/11/24 11:10:22;;;;;;;0.60;0.60;;;;;;;;;;6181189;23;20152;-76
2022/11/24 11:12:48;;;;;;;0.47;0.47;;;;;;;;;;6183877;23;20198;-77
2022/11/24 11:15:35;;;;;;;0.50;0.50;;;;;;;;;;6187945;23;20229;-76
2022/11/24 11:18:01;;;;;;;0.50;0.50;;;;;;;;;;6185245;23;20148;-75
2022/11/24 11:20:31;;;;;;;0.50;0.50;;;;;;;;;;6183243;23;20203;-76
2022/11/24 11:22:58;;;;;;;0.50;0.50;;;;;;;;;;6178966;23;20527;-76
2022/11/24 11:25:30;;;;;;;0.50;0.50;;;;;;;;;;6179450;23;20175;-76
2022/11/24 11:28:18;;;;;;;0.60;0.60;;;;;;;;;;6181152;23;20156;-76
2022/11/24 11:30:55;;;;;;;0.50;0.50;;;;;;;;;;6179768;23;20152;-76
2022/11/24 11:33:22;;;;;;;0.50;0.50;;;;;;;;;;6178701;23;20693;-76
2022/11/24 11:35:49;;;;;;;0.30;0.30;;;;;;;;;;6179967;23;20184;-78
2022/11/24 11:38:14;;;;;;;0.40;0.40;;;;;;;;;;6179998;23;20179;-76
2022/11/24 11:40:42;;;;;;;0.30;0.30;;;;;;;;;;6180683;23;20152;-76
2022/11/24 11:43:28;;;;;;;0.40;0.40;;;;;;;;;;6201987;23;20182;-76
2022/11/24 11:46:08;;;;;;;0.40;0.40;;;;;;;;;;6206170;23;20156;-76
2022/11/24 11:48:35;;;;;;;0.30;0.30;;;;;;;;;;6204595;23;20143;-74
2022/11/24 11:51:05;;;;;;;0.40;0.40;;;;;;;;;;6202316;23;20155;-75
2022/11/24 11:53:47;;;;;;;0.47;0.47;;;;;;;;;;6199682;23;20179;-76
2022/11/24 11:56:25;;;;;;;0.53;0.53;;;;;;;;;;6180907;23;20201;-76
2022/11/24 11:59:15;;;;;;;0.57;0.57;;;9.70;1.00;;;;;;6182171;23;20193;-76
2022/11/24 12:02:14;;;;;;;0.47;0.47;;;11.70;99.90;;;;;;6180109;23;20675;-77
2022/11/24 12:04:51;;;;;;;0.50;0.50;;;;;;;;;;6180208;23;20213;-77
2022/11/24 12:07:36;;;;;;;0.60;0.60;;;;;;;;;;6177620;23;20163;-76
2022/11/24 12:10:05;;;;;;;0.50;0.50;;;;;;;;;;6182021;23;20186;-75
2022/11/24 12:12:49;;;;;;;0.60;0.60;;;;;;;;;;6180060;23;20510;-75
2022/11/24 12:15:34;;;;;;;0.50;0.50;;;;;;;;;;6181467;23;20170;-76
2022/11/24 12:18:09;;;;;;;0.57;0.57;;;;;;;;;;6180741;23;20539;-75
2022/11/24 12:20:53;;;;;;;0.40;0.40;;;;;;;;;;6180362;23;20179;-75
2022/11/24 12:23:28;;;;;;;0.50;0.50;;;;;;;;;;6180821;23;20214;-76
2022/11/24 12:25:58;;;;;;;0.53;0.53;;;;;;;;;;6181506;23;20148;-75
2022/11/24 12:28:46;;;;;;;0.50;0.50;;;;;;;;;;6181457;23;20148;-77
2022/11/24 12:31:31;;;;;;;0.60;0.60;;;;;;;;;;6187406;23;20160;-77
2022/11/24 12:33:57;;;;;;;0.50;0.50;;;;;;;;;;6180645;23;20516;-77
2022/11/24 12:36:23;;;;;;;0.50;0.50;;;;;;;;;;6181043;23;20231;-76
2022/11/24 12:38:56;;;;;;;0.63;0.63;;;;;;;;;;6183190;23;20582;-76
2022/11/24 12:41:29;;;;;;;0.53;0.53;;;;;;;;;;6188061;23;20136;-76
2022/11/24 12:43:56;;;;;;;0.40;0.40;;;;;;;;;;6190180;23;20205;-76
2022/11/24 12:46:25;;;;;;;0.40;0.40;;;;;;;;;;6192531;23;20158;-76
2022/11/24 12:49:00;;;;;;;0.60;0.60;;;;;;;;;;6182500;23;20182;-76
2022/11/24 12:51:34;;;;;;;0.50;0.50;;;;;;;;;;6179808;23;20175;-76
2022/11/24 12:54:06;;;;;;;0.50;0.50;;;;;;;;;;6178277;23;20259;-76
2022/11/24 12:56:58;;;;;;;0.57;0.57;;;;;;;;;;6178982;23;20209;-76
2022/11/24 12:59:27;;;;;;;0.60;0.60;;;;;;;;;;6179250;23;20188;-77
2022/11/24 13:02:02;;;;;;;0.60;0.60;;;;;;;;;;6179252;23;20197;-76
2022/11/24 13:04:35;;;;;;;0.50;0.50;;;;;;;;;;6182339;23;20164;-77
2022/11/24 13:07:21;;;;;;;0.40;0.40;;;;;;;;;;6187242;23;20171;-77
2022/11/24 13:10:26;;;;;;;0.50;0.50;;;;;;;;;;6186919;23;20167;-77
2022/11/24 13:13:02;;;;;;;0.57;0.57;;;;;;;;;;6209924;23;20182;-77
2022/11/24 13:15:28;;;;;;;0.57;0.57;;;;;;;;;;6210528;23;20482;-77
2022/11/24 13:17:55;;;;;;;0.50;0.50;;;;;;;;;;6193468;23;20160;-77
2022/11/24 13:20:20;;;;;;;0.60;0.60;;;;;;;;;;6179298;23;20211;-76
2022/11/24 13:22:57;;;;;;;0.60;0.60;;;;;;;;;;6178668;23;20225;-76
2022/11/24 13:25:25;;;;;;;0.50;0.50;;;;;;;;;;6179265;23;20160;-77
2022/11/24 13:27:52;;;;;;;0.50;0.50;;;;;;;;;;6178772;23;20191;-77
2022/11/24 13:30:33;;;;;;;0.50;0.50;;;;;;;;;;6179069;23;20152;-77
2022/11/24 13:33:00;;;;;;;0.50;0.50;;;;;;;;;;6177406;23;20210;-78
2022/11/24 13:35:26;;;;;;;0.40;0.40;;;;;;;;;;6178833;23;20152;-77
2022/11/24 13:37:52;;;;;;;0.47;0.47;;;;;;;;;;6178776;23;20640;-78
2022/11/24 13:40:21;;;;;;;0.30;0.30;;;;;;;;;;6179050;23;20191;-76
2022/11/24 13:42:57;;;;;;;0.30;0.30;;;;;;;;;;6186252;23;20176;-81
2022/11/24 13:45:39;;;;;;;0.40;0.40;;;;;;;;;;6183826;23;20158;-76
2022/11/24 13:48:24;;;;;;;0.50;0.50;;;;;;;;;;6179085;23;20166;-77
2022/11/24 13:50:54;;;;;;;0.40;0.40;;;;;;;;;;6178937;23;20158;-76
2022/11/24 13:53:32;;;;;;;0.40;0.40;;;;;;;;;;6178957;23;20170;-76
2022/11/24 13:56:07;;;;;;;0.40;0.40;;;;;;;;;;6179147;23;20155;-77
2022/11/24 13:58:36;;;;;;;0.43;0.43;;;;;;;;;;6178856;23;20181;-77
2022/11/24 14:01:08;;;;;;;0.40;0.40;;;;;;;;;;6179413;23;20164;-77
2022/11/24 14:03:36;;;;;;;0.47;0.47;;;;;;;;;;6178126;23;20176;-77
2022/11/24 14:06:02;;;;;;;0.60;0.60;;;;;;;;;;6178953;23;20227;-77
2022/11/24 14:08:30;;;;;;;0.40;0.40;;;;;;;;;;6179034;23;20163;-77
2022/11/24 14:10:56;;;;;;;0.60;0.60;;;;;;;;;;6178296;23;20160;-77
2022/11/24 14:13:22;;;;;;;0.40;0.40;;;;;;;;;;6178157;23;20694;-77
2022/11/24 14:16:01;;;;;;;0.60;0.60;;;;;;;;;;6178842;23;20160;-77
2022/11/24 14:18:30;;;;;;;0.40;0.40;;;;;;;;;;6179022;23;20187;-77
2022/11/24 14:20:57;;;;;;;0.40;0.40;;;;;;;;;;6179457;23;20176;-77
2022/11/24 14:23:23;;;;;;;0.50;0.50;;;;;;;;;;6178051;23;20756;-77
2022/11/24 14:25:50;;;;;;;0.40;0.40;;;;;;;;;;6178397;23;20602;-76
2022/11/24 14:28:21;;;;;;;0.50;0.50;;;;;;;;;;6179099;23;20197;-77
2022/11/24 14:30:47;;;;;;;0.50;0.50;;;;;;;;;;6178580;23;20549;-77
2022/11/24 14:33:14;;;;;;;0.50;0.50;;;;;;;;;;6177845;23;20626;-76
2022/11/24 14:35:44;;;;;;;0.50;0.50;;;;;;;;;;6178845;23;20235;-76
2022/11/24 14:38:11;;;;;;;0.53;0.53;;;;;;;;;;6178455;23;20168;-76
2022/11/24 14:40:37;;;;;;;0.60;0.60;;;;;;;;;;6179346;23;20188;-77
2022/11/24 14:43:04;;;;;;;0.40;0.40;;;;;;;;;;6179189;23;20251;-75
2022/11/24 14:45:30;;;;;;;0.50;0.50;;;;;;;;;;6182234;23;20469;-77
2022/11/24 14:47:56;;;;;;;0.43;0.43;;;;;;;;;;6181333;23;20205;-77
2022/11/24 14:50:22;;;;;;;0.50;0.50;;;;;;;;;;6181178;23;20455;-78
2022/11/24 14:52:58;;;;;;;0.50;0.50;;;;;;;;;;6178842;23;20728;-78
2022/11/24 14:55:25;;;;;;;0.50;0.50;;;;;;;;;;6180015;23;20147;-76